Palermo, Italy
Current Conditions -  °F | °C
As of 7:20 AM on Saturday 25 Oct 2014 (Local Time) from LICJ Reporting Station
Scattered Clouds Scattered Clouds  
Wind Chill: 21°   Ceiling: Unl
Heat Index: 21°   Visibility: 6mi
Dew Point: 15°   Wind: 20mph
Humidity: 68%   Direction: 320°NW
Pressure: 29.94"   Gusts: NA
Location:  38.12°N, 13.36°E
Report Text: LICJ 250520Z 32017KT 9999 SCT025 21/15 Q1014
Loading
Personal Weather Stations






























Interactive Weather Map
Tropical Storm Tracking
New forecast layout! Learn more

10-Day Weather Forecast

Advertisements
Track Severe Weather on mobile